createdAt,value
2023-06-23T00:00:27.495Z,100.00
2023-06-23T00:02:55.958Z,100.00
2023-06-23T00:05:24.874Z,100.00
2023-06-23T00:07:53.335Z,100.00
2023-06-23T00:10:21.884Z,100.00
2023-06-23T00:12:51.132Z,100.00
2023-06-23T00:15:21.088Z,100.00
2023-06-23T00:17:51.587Z,100.00
2023-06-23T00:20:20.575Z,100.00
2023-06-23T00:22:49.041Z,100.00
2023-06-23T00:25:17.537Z,100.00
2023-06-23T00:27:46.573Z,100.00
2023-06-23T00:30:16.792Z,100.00
2023-06-23T00:32:46.786Z,100.00
2023-06-23T00:35:15.809Z,100.00
2023-06-23T00:37:45.661Z,100.00
2023-06-23T00:40:14.719Z,100.00
2023-06-23T00:42:47.294Z,100.00
2023-06-23T00:45:15.960Z,100.00
2023-06-23T00:47:46.477Z,100.00
2023-06-23T00:50:18.295Z,100.00
2023-06-23T00:52:52.819Z,100.00
2023-06-23T00:55:22.257Z,100.00
2023-06-23T00:57:51.962Z,100.00
2023-06-23T01:00:21.463Z,100.00
2023-06-23T01:02:53.454Z,100.00
2023-06-23T01:05:26.303Z,100.00
2023-06-23T01:08:06.194Z,100.00
2023-06-23T01:10:38.210Z,100.00
2023-06-23T01:13:22.244Z,100.00
2023-06-23T01:15:56.179Z,100.00
2023-06-23T01:18:41.889Z,100.00
2023-06-23T01:21:15.043Z,100.00
2023-06-23T01:24:06.837Z,100.00
2023-06-23T01:26:57.818Z,100.00
2023-06-23T01:29:31.364Z,100.00
2023-06-23T01:32:04.341Z,100.00
2023-06-23T01:34:41.179Z,100.00
2023-06-23T01:37:13.200Z,100.00
2023-06-23T01:39:45.735Z,100.00
2023-06-23T01:42:18.428Z,100.00
2023-06-23T01:44:51.974Z,100.00
2023-06-23T01:47:23.443Z,100.00
2023-06-23T01:49:53.122Z,100.00
2023-06-23T01:52:22.444Z,100.00
2023-06-23T01:54:52.633Z,100.00
2023-06-23T01:57:23.044Z,100.00
2023-06-23T01:59:55.087Z,100.00
2023-06-23T02:02:25.819Z,100.00
2023-06-23T02:04:56.788Z,100.00
2023-06-23T02:07:26.362Z,100.00
2023-06-23T02:09:57.463Z,100.00
2023-06-23T02:12:26.083Z,100.00
2023-06-23T02:14:56.160Z,100.00
2023-06-23T02:17:26.601Z,100.00
2023-06-23T02:19:56.923Z,100.00
2023-06-23T02:22:28.623Z,100.00
2023-06-23T02:24:58.510Z,100.00
2023-06-23T02:27:28.248Z,100.00
2023-06-23T02:29:59.668Z,100.00
2023-06-23T02:32:28.080Z,100.00
2023-06-23T02:34:56.655Z,100.00
2023-06-23T02:37:27.517Z,100.00
2023-06-23T02:39:59.832Z,100.00
2023-06-23T02:42:35.758Z,100.00
2023-06-23T02:45:11.140Z,100.00
2023-06-23T02:47:42.422Z,100.00
2023-06-23T02:50:14.426Z,100.00
2023-06-23T02:52:47.284Z,100.00
2023-06-23T02:55:21.116Z,100.00
2023-06-23T02:57:52.150Z,100.00
2023-06-23T03:00:24.523Z,100.00
2023-06-23T03:02:58.517Z,100.00
2023-06-23T03:05:27.919Z,100.00
2023-06-23T03:07:56.682Z,100.00
2023-06-23T03:10:25.141Z,100.00
2023-06-23T03:12:53.960Z,100.00
2023-06-23T03:15:23.864Z,100.00
2023-06-23T03:17:57.530Z,100.00
2023-06-23T03:20:31.235Z,100.00
2023-06-23T03:23:05.134Z,100.00
2023-06-23T03:25:34.362Z,100.00
2023-06-23T03:28:06.914Z,100.00
2023-06-23T03:30:41.984Z,100.00
2023-06-23T03:33:15.259Z,100.00
2023-06-23T03:35:44.893Z,100.00
2023-06-23T03:38:19.071Z,100.00
2023-06-23T03:40:53.226Z,100.00
2023-06-23T03:43:29.155Z,100.00
2023-06-23T03:46:19.591Z,100.00
2023-06-23T03:48:53.496Z,100.00
2023-06-23T03:51:25.317Z,100.00
2023-06-23T03:53:55.808Z,100.00
2023-06-23T03:56:26.263Z,100.00
2023-06-23T03:58:56.796Z,100.00
2023-06-23T04:01:29.143Z,100.00
2023-06-23T04:03:59.446Z,96.21
2023-06-23T04:06:30.090Z,93.13
2023-06-23T04:09:00.447Z,84.38
2023-06-23T04:11:30.146Z,75.87
2023-06-23T04:13:59.108Z,72.60
2023-06-23T04:16:31.015Z,73.30
2023-06-23T04:19:01.631Z,71.92
2023-06-23T04:21:32.529Z,83.60
2023-06-23T04:24:07.439Z,82.48
2023-06-23T04:26:37.207Z,87.87
2023-06-23T04:29:08.010Z,99.83
2023-06-23T04:31:39.461Z,99.02
2023-06-23T04:34:08.592Z,100.00
2023-06-23T04:37:01.074Z,100.00
2023-06-23T04:39:34.095Z,100.00
2023-06-23T04:42:06.950Z,100.00
2023-06-23T04:44:46.004Z,100.00
2023-06-23T04:47:19.931Z,100.00
2023-06-23T04:49:52.377Z,100.00
2023-06-23T04:52:22.968Z,98.72
2023-06-23T04:54:54.316Z,81.15
2023-06-23T04:57:26.899Z,72.86
2023-06-23T04:59:59.885Z,71.50
2023-06-23T05:02:33.713Z,77.20
2023-06-23T05:05:03.308Z,75.13
2023-06-23T05:07:33.219Z,73.63
2023-06-23T05:10:03.430Z,66.74
2023-06-23T05:12:33.549Z,61.49
2023-06-23T05:15:03.891Z,55.38
2023-06-23T05:17:36.916Z,51.30
2023-06-23T05:20:07.725Z,54.12
2023-06-23T05:22:38.301Z,49.02
2023-06-23T05:25:09.661Z,51.12
2023-06-23T05:27:40.459Z,47.65
2023-06-23T05:30:11.690Z,45.35
2023-06-23T05:32:44.684Z,42.83
2023-06-23T05:35:14.448Z,46.66
2023-06-23T05:37:45.036Z,55.94
2023-06-23T05:40:15.726Z,50.62
2023-06-23T05:42:44.999Z,48.06
2023-06-23T05:45:14.534Z,43.98
2023-06-23T05:47:52.304Z,42.09
2023-06-23T05:50:25.693Z,40.53
2023-06-23T05:53:00.652Z,41.27
2023-06-23T05:55:31.090Z,41.56
2023-06-23T05:58:05.873Z,42.16
2023-06-23T06:00:40.392Z,40.93
2023-06-23T06:03:15.956Z,42.72
2023-06-23T06:05:50.143Z,41.87
2023-06-23T06:08:19.095Z,40.04
2023-06-23T06:10:48.380Z,39.74
2023-06-23T06:13:19.233Z,38.54
2023-06-23T06:15:48.928Z,38.87
2023-06-23T06:18:23.888Z,39.19
2023-06-23T06:20:54.921Z,39.14
2023-06-23T06:23:26.288Z,39.03
2023-06-23T06:25:56.197Z,40.40
2023-06-23T06:28:26.598Z,39.54
2023-06-23T06:30:57.087Z,39.50
2023-06-23T06:33:27.798Z,41.41
2023-06-23T06:35:59.990Z,42.48
2023-06-23T06:38:30.985Z,41.52
2023-06-23T06:41:00.637Z,40.68
2023-06-23T06:43:29.129Z,41.66
2023-06-23T06:45:58.102Z,41.83
2023-06-23T06:48:29.038Z,42.25
2023-06-23T06:50:58.359Z,42.46
2023-06-23T06:53:27.675Z,42.36
2023-06-23T06:55:57.112Z,40.87
2023-06-23T06:58:26.102Z,42.66
2023-06-23T07:00:55.447Z,40.47
2023-06-23T07:03:24.874Z,38.51
2023-06-23T07:05:55.434Z,38.76
2023-06-23T07:08:24.276Z,35.41
2023-06-23T07:10:52.745Z,33.62
2023-06-23T07:13:21.091Z,37.24
2023-06-23T07:15:49.682Z,37.63
2023-06-23T07:18:18.063Z,36.42
2023-06-23T07:20:54.252Z,37.69
2023-06-23T07:23:24.838Z,37.65
2023-06-23T07:25:53.390Z,37.46
2023-06-23T07:28:21.875Z,37.20
2023-06-23T07:30:50.418Z,36.85
2023-06-23T07:33:18.960Z,39.38
2023-06-23T07:35:47.408Z,41.01
2023-06-23T07:38:15.685Z,38.83
2023-06-23T07:40:46.862Z,38.04
2023-06-23T07:43:15.576Z,36.87
2023-06-23T07:45:45.226Z,36.47
2023-06-23T07:48:13.787Z,38.35
2023-06-23T07:50:42.212Z,39.09
2023-06-23T07:53:10.681Z,42.06
2023-06-23T07:55:39.026Z,42.76
2023-06-23T07:58:08.793Z,42.01
2023-06-23T08:00:37.245Z,44.26
2023-06-23T08:03:06.426Z,45.71
2023-06-23T08:05:35.237Z,45.14
2023-06-23T08:08:03.856Z,44.47
2023-06-23T08:10:32.368Z,43.98
2023-06-23T08:13:01.172Z,44.73
2023-06-23T08:15:31.863Z,46.43
2023-06-23T08:18:00.632Z,48.91
2023-06-23T08:20:30.146Z,52.20
2023-06-23T08:22:58.999Z,56.33
2023-06-23T08:25:27.584Z,57.60
2023-06-23T08:27:57.350Z,64.83
2023-06-23T08:30:33.163Z,67.10
2023-06-23T08:33:01.837Z,71.26
2023-06-23T08:35:30.664Z,74.83
2023-06-23T08:37:59.183Z,73.61
2023-06-23T08:40:27.644Z,69.37
2023-06-23T08:42:58.474Z,79.21
2023-06-23T08:45:27.570Z,75.23
2023-06-23T08:48:03.365Z,77.61
2023-06-23T08:50:33.095Z,84.74
2023-06-23T08:53:02.079Z,81.54
2023-06-23T08:55:30.951Z,83.73
2023-06-23T08:58:01.663Z,90.78
2023-06-23T09:00:31.731Z,92.53
2023-06-23T09:03:02.615Z,91.82
2023-06-23T09:05:31.395Z,87.05
2023-06-23T09:08:02.445Z,89.59
2023-06-23T09:10:31.595Z,86.78
2023-06-23T09:13:18.905Z,86.04
2023-06-23T09:18:21.481Z,87.34
2023-06-23T09:20:51.858Z,88.03
2023-06-23T09:23:22.687Z,87.50
2023-06-23T09:25:52.643Z,88.68
2023-06-23T09:28:29.995Z,89.32
2023-06-23T09:30:59.930Z,85.19
2023-06-23T09:33:30.797Z,86.97
2023-06-23T09:35:59.217Z,85.30
2023-06-23T09:38:29.870Z,79.66
2023-06-23T09:41:13.717Z,79.07
2023-06-23T09:43:43.524Z,81.83
2023-06-23T09:46:13.754Z,80.90
2023-06-23T09:48:45.735Z,77.59
2023-06-23T09:51:20.354Z,79.03
2023-06-23T09:53:50.153Z,79.54
2023-06-23T09:56:20.421Z,76.91
2023-06-23T09:58:52.041Z,79.62
2023-06-23T10:01:22.089Z,76.93
2023-06-23T10:03:54.179Z,75.16
2023-06-23T10:06:25.180Z,75.09
2023-06-23T10:08:58.858Z,72.33
2023-06-23T10:11:34.768Z,70.52
2023-06-23T10:14:06.992Z,73.83
2023-06-23T10:16:36.366Z,72.45
2023-06-23T10:19:06.589Z,71.87
2023-06-23T10:21:35.677Z,72.78
2023-06-23T10:24:06.297Z,72.97
2023-06-23T10:26:36.340Z,72.45
2023-06-23T10:29:08.410Z,73.20
2023-06-23T10:31:40.146Z,72.50
2023-06-23T10:34:15.097Z,73.81
2023-06-23T10:36:45.093Z,77.42
2023-06-23T10:39:15.410Z,77.91
2023-06-23T10:41:47.234Z,77.19
2023-06-23T10:44:18.197Z,77.50
2023-06-23T10:46:47.367Z,78.80
2023-06-23T10:49:21.824Z,77.17
2023-06-23T10:51:52.457Z,76.81
2023-06-23T10:54:29.132Z,75.44
2023-06-23T10:56:57.624Z,80.33
2023-06-23T10:59:28.064Z,78.40
2023-06-23T11:02:19.011Z,79.16
2023-06-23T11:04:57.819Z,78.74
2023-06-23T11:07:27.052Z,79.89
2023-06-23T11:10:07.691Z,80.28
2023-06-23T11:12:44.179Z,77.51
2023-06-23T11:15:17.268Z,79.75
2023-06-23T11:17:47.424Z,78.64
2023-06-23T11:20:31.842Z,79.51
2023-06-23T11:23:02.727Z,85.20
2023-06-23T11:25:33.115Z,85.07
2023-06-23T11:28:41.065Z,84.92
2023-06-23T11:31:14.506Z,85.53
2023-06-23T11:33:44.269Z,86.06
2023-06-23T11:36:16.600Z,88.37
2023-06-23T11:38:46.820Z,89.48
2023-06-23T11:41:16.700Z,90.47
2023-06-23T11:43:46.878Z,89.83
2023-06-23T11:46:17.135Z,90.69
2023-06-23T11:48:46.915Z,87.95
2023-06-23T11:51:18.052Z,87.72
2023-06-23T11:53:47.478Z,89.70
2023-06-23T11:56:17.633Z,89.21
2023-06-23T11:58:52.853Z,89.60
2023-06-23T12:01:21.968Z,89.48
2023-06-23T12:03:51.322Z,90.69
2023-06-23T12:06:24.282Z,89.20
2023-06-23T12:08:53.925Z,91.55
2023-06-23T12:11:23.663Z,88.85
2023-06-23T12:13:54.195Z,86.85
2023-06-23T12:16:22.767Z,89.42
2023-06-23T12:18:54.980Z,89.01
2023-06-23T12:21:30.118Z,90.14
2023-06-23T12:24:02.796Z,91.94
2023-06-23T12:26:32.127Z,91.96
2023-06-23T12:29:11.183Z,92.82
2023-06-23T12:31:41.443Z,92.34
2023-06-23T12:34:16.629Z,93.54
2023-06-23T12:36:51.903Z,92.80
2023-06-23T12:39:25.189Z,92.35
2023-06-23T12:41:54.848Z,95.63
2023-06-23T12:44:24.079Z,96.83
2023-06-23T12:46:52.658Z,96.51
2023-06-23T12:49:23.010Z,96.72
2023-06-23T12:51:53.608Z,93.59
2023-06-23T12:54:23.660Z,99.49
2023-06-23T12:56:52.138Z,100.00
2023-06-23T12:59:21.263Z,100.00
2023-06-23T13:01:51.857Z,100.00
2023-06-23T13:04:20.414Z,100.00
2023-06-23T13:06:49.009Z,100.00
2023-06-23T13:09:21.374Z,100.00
2023-06-23T13:11:49.845Z,100.00
2023-06-23T13:14:19.114Z,100.00
2023-06-23T13:16:48.830Z,100.00
2023-06-23T13:19:17.931Z,100.00
2023-06-23T13:21:48.558Z,100.00
2023-06-23T13:24:19.045Z,100.00
2023-06-23T13:26:51.011Z,100.00
2023-06-23T13:29:19.382Z,100.00
2023-06-23T13:31:47.777Z,100.00
2023-06-23T13:34:16.360Z,100.00
2023-06-23T13:36:44.875Z,100.00
2023-06-23T13:39:13.755Z,100.00
2023-06-23T13:41:43.593Z,100.00
2023-06-23T13:44:14.698Z,100.00
2023-06-23T13:46:43.161Z,100.00
2023-06-23T13:49:13.622Z,100.00
2023-06-23T13:51:42.454Z,100.00
2023-06-23T13:54:10.838Z,100.00
2023-06-23T13:56:39.434Z,100.00
2023-06-23T13:59:09.264Z,100.00
2023-06-23T14:01:37.898Z,100.00
2023-06-23T14:04:06.770Z,100.00
2023-06-23T14:06:35.313Z,100.00
2023-06-23T14:09:04.688Z,100.00
2023-06-23T14:11:33.185Z,100.00
2023-06-23T14:14:04.531Z,100.00
2023-06-23T14:16:36.002Z,100.00
2023-06-23T14:19:05.186Z,100.00
2023-06-23T14:24:46.730Z,100.00
2023-06-23T14:27:15.200Z,100.00
2023-06-23T14:29:43.630Z,100.00
2023-06-23T14:32:13.529Z,100.00
2023-06-23T14:34:42.704Z,100.00
2023-06-23T14:37:11.022Z,100.00
2023-06-23T14:39:39.438Z,100.00
2023-06-23T14:42:09.521Z,100.00
2023-06-23T14:44:38.105Z,100.00
2023-06-23T14:47:07.265Z,100.00
2023-06-23T14:49:37.187Z,100.00
2023-06-23T14:52:06.293Z,100.00
2023-06-23T14:54:34.833Z,100.00
2023-06-23T14:57:03.295Z,100.00
2023-06-23T14:59:32.040Z,100.00
2023-06-23T15:02:03.021Z,100.00
2023-06-23T15:04:31.656Z,100.00
2023-06-23T15:07:02.117Z,100.00
2023-06-23T15:09:30.949Z,100.00
2023-06-23T15:11:59.525Z,100.00
2023-06-23T15:14:29.295Z,100.00
2023-06-23T15:16:57.698Z,100.00
2023-06-23T15:19:34.016Z,100.00
2023-06-23T15:22:04.738Z,100.00
2023-06-23T15:24:33.100Z,100.00
2023-06-23T15:27:02.324Z,100.00
2023-06-23T15:29:30.914Z,100.00
2023-06-23T15:32:00.351Z,100.00
2023-06-23T15:34:31.177Z,100.00
2023-06-23T15:37:00.177Z,100.00
2023-06-23T15:39:32.614Z,100.00
2023-06-23T15:42:00.958Z,100.00
2023-06-23T15:44:29.517Z,100.00
2023-06-23T15:46:58.081Z,100.00
2023-06-23T15:49:27.089Z,100.00
2023-06-23T15:51:55.644Z,100.00
2023-06-23T15:54:24.396Z,100.00
2023-06-23T15:56:54.492Z,100.00
2023-06-23T15:59:22.961Z,100.00
2023-06-23T16:01:51.572Z,100.00
2023-06-23T16:04:20.350Z,100.00
2023-06-23T16:06:48.974Z,100.00
2023-06-23T16:09:17.530Z,100.00
2023-06-23T16:11:45.993Z,100.00
2023-06-23T16:14:16.092Z,100.00
2023-06-23T16:16:44.585Z,100.00
2023-06-23T16:19:12.999Z,100.00
2023-06-23T16:21:45.744Z,100.00
2023-06-23T16:24:15.382Z,100.00
2023-06-23T16:26:44.197Z,100.00
2023-06-23T16:29:12.585Z,100.00
2023-06-23T16:31:42.595Z,100.00
2023-06-23T16:34:10.960Z,100.00
2023-06-23T16:36:39.315Z,100.00
2023-06-23T16:39:09.452Z,100.00
2023-06-23T16:41:38.171Z,100.00
2023-06-23T16:44:06.960Z,100.00
2023-06-23T16:46:35.337Z,100.00
2023-06-23T16:49:05.510Z,100.00
2023-06-23T16:51:41.391Z,100.00
2023-06-23T16:54:10.365Z,100.00
2023-06-23T16:56:38.852Z,100.00
2023-06-23T16:59:08.783Z,100.00
2023-06-23T17:01:37.202Z,100.00
2023-06-23T17:04:07.374Z,100.00
2023-06-23T17:06:35.906Z,100.00
2023-06-23T17:09:04.316Z,100.00
2023-06-23T17:11:32.677Z,100.00
2023-06-23T17:14:01.037Z,100.00
2023-06-23T17:16:36.399Z,100.00
2023-06-23T17:19:04.772Z,100.00
2023-06-23T17:21:35.510Z,100.00
2023-06-23T17:24:03.931Z,100.00
2023-06-23T17:26:33.107Z,100.00
2023-06-23T17:29:01.492Z,100.00
2023-06-23T17:31:31.185Z,100.00
2023-06-23T17:33:59.866Z,100.00
2023-06-23T17:36:32.414Z,100.00
2023-06-23T17:39:02.164Z,100.00
2023-06-23T17:41:30.673Z,100.00
2023-06-23T17:43:59.298Z,100.00
2023-06-23T17:46:28.186Z,100.00
2023-06-23T17:48:57.077Z,100.00
2023-06-23T17:51:27.966Z,100.00
2023-06-23T17:53:56.907Z,100.00
2023-06-23T17:56:27.067Z,100.00
2023-06-23T17:58:56.121Z,100.00
2023-06-23T18:01:24.796Z,100.00
2023-06-23T18:03:54.079Z,100.00
2023-06-23T18:06:23.437Z,100.00
2023-06-23T18:08:52.547Z,100.00
2023-06-23T18:11:22.945Z,100.00
2023-06-23T18:13:53.299Z,100.00
2023-06-23T18:16:37.074Z,100.00
2023-06-23T18:19:05.492Z,100.00
2023-06-23T18:21:33.924Z,100.00
2023-06-23T18:24:02.404Z,100.00
2023-06-23T18:26:32.931Z,100.00
2023-06-23T18:29:02.818Z,100.00
2023-06-23T18:31:31.409Z,100.00
2023-06-23T18:34:00.008Z,100.00
2023-06-23T18:36:29.060Z,100.00
2023-06-23T18:38:57.536Z,100.00
2023-06-23T18:41:26.025Z,100.00
2023-06-23T18:43:54.465Z,100.00
2023-06-23T18:46:24.237Z,100.00
2023-06-23T18:48:52.635Z,100.00
2023-06-23T18:51:21.086Z,100.00
2023-06-23T18:53:49.401Z,100.00
2023-06-23T18:56:17.823Z,100.00
2023-06-23T18:58:49.906Z,100.00
2023-06-23T19:01:18.314Z,100.00
2023-06-23T19:03:50.694Z,100.00
2023-06-23T19:06:19.575Z,100.00
2023-06-23T19:08:48.132Z,100.00
2023-06-23T19:11:16.838Z,100.00
2023-06-23T19:13:45.368Z,100.00
2023-06-23T19:16:13.697Z,100.00
2023-06-23T19:18:42.135Z,100.00
2023-06-23T19:21:12.225Z,100.00
2023-06-23T19:23:40.775Z,100.00
2023-06-23T19:26:09.190Z,100.00
2023-06-23T19:28:37.640Z,100.00
2023-06-23T19:31:06.306Z,100.00
2023-06-23T19:33:34.960Z,100.00
2023-06-23T19:36:03.493Z,100.00
2023-06-23T19:38:33.492Z,100.00
2023-06-23T19:41:02.370Z,100.00
2023-06-23T19:43:30.726Z,100.00
2023-06-23T19:46:00.106Z,100.00
2023-06-23T19:48:35.817Z,100.00
2023-06-23T19:51:04.545Z,100.00
2023-06-23T19:53:34.420Z,100.00
2023-06-23T19:56:02.864Z,100.00
2023-06-23T19:58:31.158Z,100.00
2023-06-23T20:01:00.037Z,100.00
2023-06-23T20:03:28.453Z,100.00
2023-06-23T20:05:57.269Z,100.00
2023-06-23T20:08:25.828Z,100.00
2023-06-23T20:10:55.609Z,100.00
2023-06-23T20:13:24.326Z,100.00
2023-06-23T20:15:52.918Z,100.00
2023-06-23T20:18:21.504Z,100.00
2023-06-23T20:20:49.955Z,100.00
2023-06-23T20:23:18.347Z,100.00
2023-06-23T20:25:46.842Z,100.00
2023-06-23T20:28:16.772Z,100.00
2023-06-23T20:30:45.339Z,100.00
2023-06-23T20:33:13.684Z,100.00
2023-06-23T20:35:45.534Z,100.00
2023-06-23T20:38:14.173Z,100.00
2023-06-23T20:40:43.149Z,100.00
2023-06-23T20:43:12.108Z,100.00
2023-06-23T20:45:42.054Z,100.00
2023-06-23T20:48:10.516Z,100.00
2023-06-23T20:50:39.078Z,100.00
2023-06-23T20:53:07.473Z,100.00
2023-06-23T20:55:36.016Z,100.00
2023-06-23T20:58:04.572Z,100.00
2023-06-23T21:00:33.626Z,100.00
2023-06-23T21:03:05.688Z,100.00
2023-06-23T21:05:34.483Z,100.00
2023-06-23T21:08:03.016Z,100.00
2023-06-23T21:10:31.495Z,100.00
2023-06-23T21:12:59.993Z,100.00
2023-06-23T21:15:28.410Z,100.00
2023-06-23T21:17:57.755Z,100.00
2023-06-23T21:23:16.076Z,100.00
2023-06-23T21:25:45.677Z,100.00
2023-06-23T21:28:14.145Z,100.00
2023-06-23T21:30:42.775Z,100.00
2023-06-23T21:33:11.319Z,100.00
2023-06-23T21:35:41.879Z,100.00
2023-06-23T21:38:11.651Z,100.00
2023-06-23T21:40:42.608Z,100.00
2023-06-23T21:43:12.479Z,100.00
2023-06-23T21:45:40.959Z,100.00
2023-06-23T21:48:09.376Z,100.00
2023-06-23T21:50:37.974Z,100.00
2023-06-23T21:53:10.215Z,100.00
2023-06-23T21:55:38.823Z,100.00
2023-06-23T21:58:08.134Z,100.00
2023-06-23T22:00:37.032Z,100.00
2023-06-23T22:03:06.017Z,100.00
2023-06-23T22:05:34.480Z,100.00
2023-06-23T22:08:02.777Z,100.00
2023-06-23T22:10:32.962Z,100.00
2023-06-23T22:13:04.375Z,100.00
2023-06-23T22:15:32.861Z,100.00
2023-06-23T22:18:01.392Z,100.00
2023-06-23T22:20:29.873Z,100.00
2023-06-23T22:22:58.342Z,100.00
2023-06-23T22:25:26.796Z,100.00
2023-06-23T22:27:56.566Z,100.00
2023-06-23T22:30:24.895Z,100.00
2023-06-23T22:32:53.334Z,100.00
2023-06-23T22:35:22.616Z,100.00
2023-06-23T22:37:54.042Z,100.00
2023-06-23T22:40:22.360Z,100.00
2023-06-23T22:42:50.774Z,100.00
2023-06-23T22:45:20.782Z,100.00
2023-06-23T22:47:49.432Z,100.00
2023-06-23T22:50:18.077Z,100.00
2023-06-23T22:52:46.770Z,100.00
2023-06-23T22:55:15.807Z,100.00
2023-06-23T22:57:44.578Z,100.00
2023-06-23T23:00:14.459Z,100.00
2023-06-23T23:02:44.439Z,100.00
2023-06-23T23:05:15.826Z,100.00
2023-06-23T23:07:46.660Z,100.00
2023-06-23T23:10:15.341Z,100.00
2023-06-23T23:12:44.700Z,100.00
2023-06-23T23:15:13.329Z,100.00
2023-06-23T23:17:41.828Z,100.00
2023-06-23T23:20:12.822Z,100.00
2023-06-23T23:22:41.683Z,100.00
2023-06-23T23:25:11.280Z,100.00
2023-06-23T23:27:39.751Z,100.00
2023-06-23T23:30:09.665Z,100.00
2023-06-23T23:32:39.627Z,100.00
2023-06-23T23:35:11.634Z,100.00
2023-06-23T23:37:42.239Z,100.00
2023-06-23T23:40:12.521Z,100.00
2023-06-23T23:42:41.128Z,100.00
2023-06-23T23:45:10.409Z,100.00
2023-06-23T23:47:38.902Z,100.00
2023-06-23T23:50:09.337Z,100.00
2023-06-23T23:52:37.775Z,100.00
2023-06-23T23:55:08.034Z,100.00
2023-06-23T23:57:36.742Z,100.00
